Time;durP1;ratioP1;P1;durP2;ratioP2;P2;SDS_P1;SDS_P2;PMS_P1;PMS_P2;Temp;Humidity;BMP_temperature;BMP_pressure;BME280_temperature;BME280_humidity;BME280_pressure;Samples;Min_cycle;Max_cycle;Signal;HPM_P1;HPM_P2
2023/03/04 00:01:50;;;;;;;18.60;3.50;;;6.10;99.90;;;;;;5057167;28;20519;-71
2023/03/04 00:04:16;;;;;;;11.77;3.05;;;6.10;99.90;;;;;;5061751;28;20071;-71
2023/03/04 00:06:41;;;;;;;13.77;3.08;;;6.10;99.90;;;;;;5047802;28;20044;-71
2023/03/04 00:09:07;;;;;;;15.43;3.13;;;6.10;99.90;;;;;;5049237;28;20036;-71
2023/03/04 00:11:33;;;;;;;16.75;2.90;;;6.10;99.90;;;;;;5066685;28;20472;-71
2023/03/04 00:13:58;;;;;;;6.85;2.88;;;6.10;99.90;;;;;;5048798;28;20118;-71
2023/03/04 00:16:27;;;;;;;15.40;3.35;;;6.10;99.90;;;;;;5065971;28;20483;-71
2023/03/04 00:18:54;;;;;;;15.50;3.05;;;6.10;99.90;;;;;;5056756;28;20040;-71
2023/03/04 00:21:20;;;;;;;13.82;3.03;;;6.10;99.90;;;;;;5066484;28;20036;-71
2023/03/04 00:23:46;;;;;;;11.70;3.20;;;6.20;99.90;;;;;;5065761;28;20067;-71
2023/03/04 00:26:12;;;;;;;19.00;3.58;;;6.20;99.90;;;;;;5064808;28;20040;-71
2023/03/04 00:28:38;;;;;;;19.15;3.65;;;6.10;99.90;;;;;;5058431;28;20044;-71
2023/03/04 00:31:05;;;;;;;12.40;3.15;;;6.20;99.90;;;;;;5047213;28;20048;-71
2023/03/04 00:33:31;;;;;;;15.18;3.42;;;6.10;99.90;;;;;;5049785;28;20044;-71
2023/03/04 00:35:56;;;;;;;16.95;3.13;;;6.20;99.90;;;;;;5047061;28;20038;-71
2023/03/04 00:38:22;;;;;;;14.13;2.97;;;6.20;99.90;;;;;;5065606;28;20032;-71
2023/03/04 00:40:47;;;;;;;15.05;3.38;;;6.20;99.90;;;;;;5065735;28;20048;-71
2023/03/04 00:43:13;;;;;;;15.38;3.20;;;6.20;99.90;;;;;;5067101;28;20047;-71
2023/03/04 00:45:39;;;;;;;11.55;2.72;;;6.20;99.90;;;;;;5061081;28;20484;-71
2023/03/04 00:48:04;;;;;;;13.68;3.35;;;6.20;99.90;;;;;;5057540;28;20047;-71
2023/03/04 00:50:30;;;;;;;12.20;2.92;;;6.20;99.90;;;;;;5049274;28;20042;-71
2023/03/04 00:52:56;;;;;;;11.82;3.15;;;6.30;99.90;;;;;;5067497;28;20055;-71
2023/03/04 00:55:21;;;;;;;16.58;3.05;;;6.20;99.90;;;;;;5048066;28;20044;-71
2023/03/04 00:57:47;;;;;;;12.10;2.80;;;6.20;99.90;;;;;;5061536;28;20033;-71
2023/03/04 01:00:13;;;;;;;18.70;3.25;;;6.20;99.90;;;;;;5042858;28;20142;-71
2023/03/04 01:02:38;;;;;;;11.50;3.00;;;6.20;99.90;;;;;;5066971;28;20063;-71
2023/03/04 01:05:05;;;;;;;14.68;2.85;;;6.20;99.90;;;;;;5085632;28;20041;-71
2023/03/04 01:07:31;;;;;;;15.95;3.35;;;6.20;99.90;;;;;;5067292;28;20040;-71
2023/03/04 01:09:56;;;;;;;14.50;3.00;;;6.20;99.90;;;;;;5068632;28;20051;-71
2023/03/04 01:12:22;;;;;;;14.65;3.22;;;6.20;99.90;;;;;;5048635;28;20044;-70
2023/03/04 01:14:48;;;;;;;14.45;2.95;;;6.20;99.90;;;;;;5069535;28;20040;-71
2023/03/04 01:17:13;;;;;;;11.15;2.58;;;6.20;99.90;;;;;;5067120;28;20439;-71
2023/03/04 01:19:39;;;;;;;17.88;3.38;;;6.20;99.90;;;;;;5065259;28;20063;-71
2023/03/04 01:22:04;;;;;;;15.95;3.00;;;6.20;99.90;;;;;;5065477;28;20507;-71
2023/03/04 01:24:30;;;;;;;15.95;2.75;;;6.10;99.90;;;;;;5066095;28;20052;-71
2023/03/04 01:26:55;;;;;;;17.25;3.42;;;6.20;99.90;;;;;;5070129;28;20119;-71
2023/03/04 01:29:22;;;;;;;13.32;2.92;;;6.10;99.90;;;;;;5072138;28;21064;-70
2023/03/04 01:31:48;;;;;;;14.68;3.10;;;6.10;99.90;;;;;;5054549;28;20127;-70
2023/03/04 01:34:13;;;;;;;13.00;2.65;;;6.10;99.90;;;;;;5063231;28;20048;-70
2023/03/04 01:36:39;;;;;;;11.85;3.10;;;6.10;99.90;;;;;;5067345;28;20044;-70
2023/03/04 01:39:05;;;;;;;14.07;3.08;;;6.10;99.90;;;;;;5067820;28;20032;-71
2023/03/04 01:41:31;;;;;;;13.75;3.22;;;6.10;99.90;;;;;;5065928;28;20050;-71
2023/03/04 01:43:59;;;;;;;13.98;2.83;;;6.10;99.90;;;;;;5062490;28;20040;-71
2023/03/04 01:46:25;;;;;;;14.63;3.35;;;6.10;99.90;;;;;;5063037;28;20052;-71
2023/03/04 01:48:51;;;;;;;11.82;2.88;;;6.00;99.90;;;;;;5068942;28;20036;-71
2023/03/04 01:51:18;;;;;;;12.63;2.90;;;6.00;99.90;;;;;;5044797;28;20028;-71
2023/03/04 01:53:48;;;;;;;14.23;2.78;;;6.00;99.90;;;;;;5070049;28;20420;-71
2023/03/04 01:56:34;;;;;;;13.40;2.55;;;6.00;99.90;;;;;;5066324;28;20048;-71
2023/03/04 01:59:13;;;;;;;15.10;3.17;;;6.00;99.90;;;;;;5066998;28;20261;-71
2023/03/04 02:01:40;;;;;;;18.50;3.00;;;6.00;99.90;;;;;;5060129;28;20028;-71
2023/03/04 02:04:07;;;;;;;20.85;3.25;;;6.00;99.90;;;;;;5066314;28;20434;-70
2023/03/04 02:06:35;;;;;;;13.55;3.60;;;5.90;99.90;;;;;;5052461;28;20239;-71
2023/03/04 02:09:00;;;;;;;10.65;3.25;;;5.90;99.90;;;;;;5064397;28;20052;-71
2023/03/04 02:11:26;;;;;;;9.98;2.88;;;5.90;99.90;;;;;;5047368;28;20090;-71
2023/03/04 02:13:52;;;;;;;14.20;3.00;;;5.90;99.90;;;;;;5071142;28;20043;-71
2023/03/04 02:16:18;;;;;;;15.25;3.17;;;6.00;99.90;;;;;;5068267;28;20064;-70
2023/03/04 02:18:43;;;;;;;12.95;3.03;;;6.00;99.90;;;;;;5061157;28;20071;-71
2023/03/04 02:21:26;;;;;;;14.48;3.05;;;5.90;99.90;;;;;;5085506;28;20064;-70
2023/03/04 02:24:42;;;;;;;14.60;3.10;;;5.90;99.90;;;;;;5067398;28;20414;-70
2023/03/04 02:27:07;;;;;;;10.88;2.53;;;6.00;99.90;;;;;;4991668;28;20104;-71
2023/03/04 02:29:33;;;;;;;9.07;2.92;;;6.00;99.90;;;;;;4999561;28;20033;-70
2023/03/04 02:31:59;;;;;;;13.63;3.00;;;5.90;99.90;;;;;;5006373;28;20045;-70
2023/03/04 02:34:30;;;;;;;12.80;3.50;;;6.00;99.90;;;;;;5005509;28;20096;-70
2023/03/04 02:36:56;;;;;;;9.77;2.50;;;6.00;99.90;;;;;;5005864;28;20049;-70
2023/03/04 02:39:31;;;;;;;11.98;2.70;;;6.00;99.90;;;;;;4988449;28;20049;-71
2023/03/04 02:41:57;;;;;;;10.65;3.08;;;6.00;99.90;;;;;;5005941;28;20041;-71
2023/03/04 02:44:33;;;;;;;10.52;2.63;;;6.00;99.90;;;;;;5004626;28;20060;-70
2023/03/04 02:47:00;;;;;;;13.98;3.15;;;6.00;99.90;;;;;;4993895;28;20413;-71
2023/03/04 02:49:28;;;;;;;10.77;2.75;;;6.00;99.90;;;;;;4999798;28;20047;-70
2023/03/04 02:52:03;;;;;;;8.18;3.22;;;6.00;99.90;;;;;;5006365;28;20437;-70
2023/03/04 02:54:28;;;;;;;11.20;2.67;;;6.00;99.90;;;;;;5005845;28;20595;-71
2023/03/04 02:56:58;;;;;;;12.05;2.80;;;6.00;99.90;;;;;;4999261;28;20187;-71
2023/03/04 02:59:24;;;;;;;10.95;2.55;;;6.00;99.90;;;;;;5041726;28;20032;-71
2023/03/04 03:01:50;;;;;;;13.38;2.83;;;6.00;99.90;;;;;;5062741;28;20040;-71
2023/03/04 03:04:17;;;;;;;13.05;3.22;;;6.00;99.90;;;;;;5060460;28;21531;-71
2023/03/04 03:06:42;;;;;;;11.95;3.00;;;6.00;99.90;;;;;;5047376;28;20044;-70
2023/03/04 03:09:08;;;;;;;10.80;2.80;;;6.00;99.90;;;;;;5063471;28;20050;-70
2023/03/04 03:11:34;;;;;;;12.30;3.08;;;6.00;99.90;;;;;;5069029;28;20043;-70
2023/03/04 03:14:00;;;;;;;13.30;3.22;;;6.00;99.90;;;;;;5063622;28;20502;-71
2023/03/04 03:16:25;;;;;;;9.85;2.45;;;6.10;99.90;;;;;;5062532;28;20078;-70
2023/03/04 03:18:51;;;;;;;9.60;2.30;;;6.10;99.90;;;;;;5052249;28;20059;-71
2023/03/04 03:21:17;;;;;;;11.13;2.70;;;6.10;99.90;;;;;;5057344;28;20044;-70
2023/03/04 03:23:43;;;;;;;14.10;2.53;;;6.10;99.90;;;;;;5065083;28;20052;-70
2023/03/04 03:26:08;;;;;;;10.05;2.72;;;6.10;99.90;;;;;;5068794;28;20052;-70
2023/03/04 03:28:34;;;;;;;11.23;2.63;;;6.10;99.90;;;;;;5065913;28;20035;-70
2023/03/04 03:31:00;;;;;;;13.20;3.35;;;6.10;99.90;;;;;;5045231;28;20047;-70
2023/03/04 03:33:25;;;;;;;10.50;2.75;;;6.20;99.90;;;;;;5067725;28;20544;-70
2023/03/04 03:35:51;;;;;;;10.38;3.17;;;6.10;99.90;;;;;;5086090;28;21023;-70
2023/03/04 03:38:17;;;;;;;17.00;3.22;;;6.10;99.90;;;;;;5056098;28;20031;-71
2023/03/04 03:40:42;;;;;;;11.00;2.90;;;6.00;99.90;;;;;;5068675;28;20075;-70
2023/03/04 03:43:08;;;;;;;9.50;2.63;;;6.00;99.90;;;;;;5049286;28;20050;-70
2023/03/04 03:45:33;;;;;;;13.80;2.70;;;6.00;99.90;;;;;;5047160;28;20040;-70
2023/03/04 03:47:59;;;;;;;13.90;2.60;;;6.00;99.90;;;;;;5049781;28;20159;-71
2023/03/04 03:50:25;;;;;;;9.05;2.70;;;6.10;99.90;;;;;;5067209;28;20040;-70
2023/03/04 03:52:50;;;;;;;13.55;3.15;;;6.00;99.90;;;;;;5060498;28;20362;-70
2023/03/04 03:55:16;;;;;;;12.18;3.00;;;6.00;99.90;;;;;;5053326;28;20064;-70
2023/03/04 03:57:42;;;;;;;15.73;3.25;;;6.00;99.90;;;;;;5062774;28;20036;-70
2023/03/04 04:00:08;;;;;;;10.00;2.60;;;6.00;99.90;;;;;;5083800;28;20036;-70
2023/03/04 04:02:34;;;;;;;12.18;2.90;;;6.00;99.90;;;;;;5049302;28;20036;-70
2023/03/04 04:05:00;;;;;;;12.90;3.67;;;6.00;99.90;;;;;;5067189;28;20514;-70
2023/03/04 04:07:25;;;;;;;9.38;3.03;;;6.00;99.90;;;;;;5064209;28;20122;-71
2023/03/04 04:09:51;;;;;;;12.18;3.00;;;6.00;99.90;;;;;;5065591;28;20127;-71
2023/03/04 04:12:18;;;;;;;18.88;3.85;;;6.00;99.90;;;;;;5042565;28;20032;-70
2023/03/04 04:14:44;;;;;;;12.02;3.10;;;6.00;99.90;;;;;;5065278;28;20063;-71
2023/03/04 04:17:10;;;;;;;15.45;3.10;;;6.00;99.90;;;;;;5064204;28;20075;-70
2023/03/04 04:19:35;;;;;;;10.23;2.95;;;6.10;99.90;;;;;;5046265;28;20083;-71
2023/03/04 04:22:02;;;;;;;12.00;3.00;;;6.10;99.90;;;;;;5044084;28;20070;-70
2023/03/04 04:24:28;;;;;;;14.98;3.08;;;6.10;99.90;;;;;;5056469;28;20044;-70
2023/03/04 04:26:53;;;;;;;9.68;2.85;;;6.10;99.90;;;;;;5046788;28;20105;-70
2023/03/04 04:29:19;;;;;;;9.95;3.17;;;6.00;99.90;;;;;;5061947;28;20063;-71
2023/03/04 04:31:45;;;;;;;13.40;3.20;;;6.00;99.90;;;;;;5066099;28;20046;-70
2023/03/04 04:34:11;;;;;;;6.82;2.35;;;6.00;99.90;;;;;;5062073;28;20036;-71
2023/03/04 04:36:36;;;;;;;13.90;3.15;;;6.00;99.90;;;;;;5062636;28;20089;-71
2023/03/04 04:39:03;;;;;;;10.02;2.65;;;6.00;99.90;;;;;;5047494;28;20135;-71
2023/03/04 04:41:34;;;;;;;9.60;2.45;;;6.10;99.90;;;;;;5065055;28;20044;-70
2023/03/04 04:43:59;;;;;;;11.32;2.60;;;6.00;99.90;;;;;;5065778;28;20055;-71
2023/03/04 04:46:25;;;;;;;14.23;3.38;;;6.00;99.90;;;;;;5053318;28;20431;-71
2023/03/04 04:48:51;;;;;;;11.00;2.72;;;6.00;99.90;;;;;;5044443;28;20395;-71
2023/03/04 04:51:17;;;;;;;10.00;2.58;;;6.00;99.90;;;;;;5044415;28;20050;-71
2023/03/04 04:53:43;;;;;;;18.63;2.97;;;6.00;99.90;;;;;;5047501;28;20051;-70
2023/03/04 04:56:15;;;;;;;10.02;2.83;;;6.00;99.90;;;;;;5082416;28;20059;-70
2023/03/04 04:58:42;;;;;;;11.52;2.88;;;6.00;99.90;;;;;;5067039;28;20150;-70
2023/03/04 05:01:08;;;;;;;10.23;2.95;;;6.00;99.90;;;;;;5065827;28;20044;-71
2023/03/04 05:03:35;;;;;;;11.68;2.65;;;6.00;99.90;;;;;;5059182;28;20051;-71
2023/03/04 05:06:02;;;;;;;7.80;2.63;;;6.10;99.90;;;;;;5067416;28;20125;-71
2023/03/04 05:08:27;;;;;;;11.88;2.72;;;6.10;99.90;;;;;;5062205;28;20036;-71
2023/03/04 05:10:53;;;;;;;8.07;2.63;;;6.10;99.90;;;;;;5055544;28;20047;-71
2023/03/04 05:13:18;;;;;;;9.57;2.50;;;6.10;99.90;;;;;;5048578;28;20068;-70
2023/03/04 05:15:45;;;;;;;8.85;2.40;;;6.10;99.90;;;;;;5066085;28;20043;-70
2023/03/04 05:18:11;;;;;;;9.93;2.25;;;6.20;99.90;;;;;;5063541;28;20040;-71
2023/03/04 05:20:37;;;;;;;11.85;2.58;;;6.20;99.90;;;;;;5042112;28;20032;-71
2023/03/04 05:23:02;;;;;;;10.00;2.40;;;6.20;99.90;;;;;;5051978;28;20062;-71
2023/03/04 05:25:28;;;;;;;10.80;2.10;;;6.20;99.90;;;;;;5046090;28;20209;-71
2023/03/04 05:27:54;;;;;;;8.68;2.03;;;6.20;99.90;;;;;;5066684;28;20422;-71
2023/03/04 05:30:19;;;;;;;9.07;1.95;;;6.30;99.90;;;;;;5067332;28;20416;-70
2023/03/04 05:32:45;;;;;;;8.70;2.75;;;6.30;99.90;;;;;;5060518;28;20407;-71
2023/03/04 05:35:10;;;;;;;7.38;2.30;;;6.30;99.90;;;;;;5063596;28;20514;-71
2023/03/04 05:37:36;;;;;;;7.47;1.90;;;6.30;99.90;;;;;;5072704;28;20028;-71
2023/03/04 05:40:03;;;;;;;9.98;2.45;;;6.20;99.90;;;;;;5059538;28;20101;-70
2023/03/04 05:42:29;;;;;;;9.77;2.38;;;6.20;99.90;;;;;;5048083;28;20036;-70
2023/03/04 05:44:55;;;;;;;6.40;2.17;;;6.20;99.90;;;;;;5058922;28;20035;-71
2023/03/04 05:47:21;;;;;;;16.75;3.10;;;6.20;99.90;;;;;;5066242;28;20032;-70
2023/03/04 05:49:46;;;;;;;13.18;2.70;;;6.20;99.90;;;;;;5060864;28;20573;-70
2023/03/04 05:52:12;;;;;;;11.55;2.72;;;6.10;99.90;;;;;;5042775;28;20547;-71
2023/03/04 05:54:38;;;;;;;15.20;2.50;;;6.10;99.90;;;;;;5049393;28;20119;-70
2023/03/04 05:57:03;;;;;;;14.25;3.15;;;6.00;99.90;;;;;;5048677;28;20134;-70
2023/03/04 05:59:29;;;;;;;6.95;2.53;;;6.00;99.90;;;;;;5067709;28;20043;-71
2023/03/04 06:01:54;;;;;;;10.55;2.30;;;6.00;99.90;;;;;;5067396;28;20143;-70
2023/03/04 06:04:20;;;;;;;12.85;2.50;;;6.00;99.90;;;;;;5064848;28;20090;-70
2023/03/04 06:06:46;;;;;;;10.20;2.53;;;6.00;99.90;;;;;;5069643;28;20050;-70
2023/03/04 06:09:12;;;;;;;12.45;2.67;;;6.00;99.90;;;;;;5072321;28;20484;-70
2023/03/04 06:11:38;;;;;;;11.30;2.95;;;6.00;99.90;;;;;;5045311;28;20354;-70
2023/03/04 06:14:04;;;;;;;9.10;2.40;;;6.00;99.90;;;;;;5068444;28;20047;-70
2023/03/04 06:16:29;;;;;;;10.93;2.42;;;5.90;99.90;;;;;;5066006;28;20090;-70
2023/03/04 06:18:55;;;;;;;10.07;2.45;;;5.90;99.90;;;;;;5047301;28;20040;-71
2023/03/04 06:21:21;;;;;;;7.55;2.20;;;5.80;99.90;;;;;;5060144;28;20059;-70
2023/03/04 06:23:46;;;;;;;14.23;2.72;;;5.80;99.90;;;;;;5062290;28;20091;-70
2023/03/04 06:26:14;;;;;;;9.40;2.33;;;5.80;99.90;;;;;;5047982;28;20080;-71
2023/03/04 06:28:43;;;;;;;11.27;2.20;;;5.80;99.90;;;;;;5052687;28;20046;-71
2023/03/04 06:31:08;;;;;;;7.50;2.25;;;5.80;99.90;;;;;;5052366;28;20059;-70
2023/03/04 06:33:34;;;;;;;9.43;2.35;;;5.80;99.90;;;;;;5033479;28;20791;-71
2023/03/04 06:35:59;;;;;;;10.93;2.50;;;5.80;99.90;;;;;;5065570;28;20307;-71
2023/03/04 06:38:25;;;;;;;9.27;2.60;;;5.80;99.90;;;;;;5061327;28;20032;-71
2023/03/04 06:40:51;;;;;;;10.63;2.88;;;5.80;99.90;;;;;;5064168;28;20060;-71
2023/03/04 06:43:17;;;;;;;9.05;2.55;;;5.80;99.90;;;;;;5064434;28;20491;-71
2023/03/04 06:45:42;;;;;;;12.63;2.40;;;5.90;99.90;;;;;;5045845;28;20087;-70
2023/03/04 06:48:08;;;;;;;11.48;2.55;;;6.00;99.90;;;;;;5048055;28;20048;-71
2023/03/04 06:50:34;;;;;;;7.40;2.70;;;6.00;99.90;;;;;;5067853;28;20043;-71
2023/03/04 06:52:59;;;;;;;10.57;3.08;;;6.10;99.90;;;;;;5048531;28;20800;-71
2023/03/04 06:55:25;;;;;;;6.68;2.72;;;6.00;99.90;;;;;;5068840;28;20044;-71
2023/03/04 06:57:50;;;;;;;11.02;2.83;;;6.00;99.90;;;;;;5060643;28;20145;-71
2023/03/04 07:00:18;;;;;;;8.88;2.63;;;6.10;99.90;;;;;;5066250;28;20047;-71
2023/03/04 07:02:43;;;;;;;8.23;2.13;;;6.10;99.90;;;;;;5064605;28;20043;-71
2023/03/04 07:05:10;;;;;;;10.20;2.45;;;6.20;99.90;;;;;;5044829;28;20036;-71
2023/03/04 07:07:36;;;;;;;10.80;2.63;;;6.20;99.90;;;;;;5066665;28;20177;-71
2023/03/04 07:10:03;;;;;;;13.13;2.70;;;6.30;99.90;;;;;;5066484;28;20722;-71
2023/03/04 07:12:28;;;;;;;10.02;2.47;;;6.30;99.90;;;;;;5066603;28;20399;-70
2023/03/04 07:14:54;;;;;;;12.35;2.15;;;6.40;99.90;;;;;;5057632;28;20044;-70
2023/03/04 07:17:20;;;;;;;17.70;2.67;;;6.40;99.90;;;;;;5067239;28;20024;-70
2023/03/04 07:19:45;;;;;;;7.50;2.00;;;6.30;99.90;;;;;;5068996;28;20125;-70
2023/03/04 07:22:11;;;;;;;11.38;2.60;;;6.30;99.90;;;;;;5069086;28;20185;-70
2023/03/04 07:24:37;;;;;;;13.98;3.38;;;6.20;99.90;;;;;;5066263;28;20039;-70
2023/03/04 07:27:02;;;;;;;13.52;2.78;;;6.20;99.90;;;;;;5065544;28;20063;-70
2023/03/04 07:29:28;;;;;;;8.57;2.30;;;6.20;99.90;;;;;;5066046;28;20040;-71
2023/03/04 07:31:54;;;;;;;10.82;2.65;;;6.20;99.90;;;;;;5057383;28;20040;-70
2023/03/04 07:34:20;;;;;;;16.02;3.28;;;6.20;99.90;;;;;;5065241;28;20399;-70
2023/03/04 07:36:45;;;;;;;11.95;2.50;;;6.20;99.90;;;;;;5065218;28;20032;-70
2023/03/04 07:39:12;;;;;;;11.20;2.85;;;6.30;99.90;;;;;;5040653;28;20031;-71
2023/03/04 07:41:39;;;;;;;12.48;2.40;;;6.30;99.90;;;;;;5053035;28;20396;-70
2023/03/04 07:44:05;;;;;;;13.50;2.60;;;6.30;99.90;;;;;;5067437;28;20399;-70
2023/03/04 07:46:31;;;;;;;14.93;3.08;;;6.40;99.90;;;;;;5065970;28;20094;-70
2023/03/04 07:48:57;;;;;;;12.15;2.92;;;6.40;99.90;;;;;;5084798;28;20048;-71
2023/03/04 07:51:24;;;;;;;15.50;2.78;;;6.50;99.90;;;;;;5050191;28;20039;-70
2023/03/04 07:53:52;;;;;;;18.80;3.88;;;6.60;99.90;;;;;;5045373;28;20035;-70
2023/03/04 07:56:21;;;;;;;15.95;3.20;;;6.60;99.90;;;;;;5038619;28;20043;-71
2023/03/04 07:58:47;;;;;;;12.45;2.78;;;6.70;99.90;;;;;;5061312;28;20039;-70
2023/03/04 08:01:16;;;;;;;14.20;2.72;;;6.70;99.90;;;;;;5065164;28;20036;-70
2023/03/04 08:03:42;;;;;;;13.23;3.00;;;6.70;99.90;;;;;;5050788;28;20048;-70
2023/03/04 08:06:10;;;;;;;14.98;3.20;;;6.80;99.90;;;;;;5063424;28;20918;-71
2023/03/04 08:08:36;;;;;;;8.38;2.58;;;6.80;99.90;;;;;;5063765;28;20457;-71
2023/03/04 08:11:10;;;;;;;15.35;3.40;;;6.80;99.90;;;;;;5046153;28;20143;-71
2023/03/04 08:13:36;;;;;;;;;;;6.80;99.90;;;;;;5056877;28;20047;-71
2023/03/04 08:16:02;;;;;;;14.90;2.65;;;6.80;99.90;;;;;;5065719;28;19924;-71
2023/03/04 08:18:27;;;;;;;14.82;2.88;;;6.80;99.90;;;;;;5060372;28;20040;-71
2023/03/04 08:20:53;;;;;;;14.05;3.13;;;6.90;99.90;;;;;;5064116;28;20139;-71
2023/03/04 08:23:19;;;;;;;14.55;3.10;;;6.80;99.90;;;;;;5047862;28;20046;-71
2023/03/04 08:25:45;;;;;;;13.18;2.92;;;6.80;99.90;;;;;;5046715;28;20541;-70
2023/03/04 08:28:12;;;;;;;14.13;2.97;;;6.80;99.90;;;;;;5064871;28;20040;-70
2023/03/04 08:30:39;;;;;;;12.55;3.00;;;6.80;99.90;;;;;;5052153;28;20035;-71
2023/03/04 08:33:05;;;;;;;18.38;3.20;;;6.80;99.90;;;;;;5056332;28;20054;-71
2023/03/04 08:35:32;;;;;;;18.25;3.75;;;6.80;99.90;;;;;;5062092;28;20040;-71
2023/03/04 08:37:57;;;;;;;9.60;2.80;;;6.70;99.90;;;;;;5062751;28;20134;-71
2023/03/04 08:40:25;;;;;;;16.10;3.78;;;6.80;99.90;;;;;;5060964;28;20174;-71
2023/03/04 08:42:51;;;;;;;11.85;2.80;;;6.80;99.90;;;;;;5065992;28;20036;-71
2023/03/04 08:45:17;;;;;;;18.67;3.30;;;6.80;99.90;;;;;;5059978;28;20054;-70
2023/03/04 08:47:42;;;;;;;16.60;2.95;;;6.90;99.90;;;;;;5063347;28;20070;-70
2023/03/04 08:50:09;;;;;;;19.13;3.70;;;6.90;99.90;;;;;;5045419;28;20039;-71
2023/03/04 08:52:35;;;;;;;13.70;3.25;;;6.90;99.90;;;;;;5063222;28;20032;-71
2023/03/04 08:55:00;;;;;;;10.98;2.47;;;6.90;99.90;;;;;;5065710;28;20526;-71
2023/03/04 08:57:26;;;;;;;15.32;3.13;;;6.90;99.90;;;;;;5061411;28;20037;-71
2023/03/04 08:59:52;;;;;;;17.25;3.10;;;7.00;99.90;;;;;;5062558;28;20783;-71
2023/03/04 09:02:17;;;;;;;17.08;3.63;;;7.00;99.90;;;;;;5059858;28;20618;-71
2023/03/04 09:04:43;;;;;;;15.07;3.10;;;7.00;99.90;;;;;;5063846;28;20093;-71
2023/03/04 09:07:08;;;;;;;18.58;3.35;;;7.00;99.90;;;;;;5065681;28;20139;-71
2023/03/04 09:09:34;;;;;;;18.77;3.67;;;7.10;99.90;;;;;;5064655;28;20178;-71
2023/03/04 09:12:00;;;;;;;22.17;3.95;;;7.10;99.90;;;;;;5048615;28;20044;-71
2023/03/04 09:14:27;;;;;;;14.02;3.67;;;7.20;99.90;;;;;;5063550;28;20048;-71
2023/03/04 09:16:52;;;;;;;17.08;3.38;;;7.20;99.90;;;;;;5048120;28;20553;-70
2023/03/04 09:19:18;;;;;;;15.95;3.10;;;7.20;99.90;;;;;;5065285;28;20032;-71
2023/03/04 09:21:44;;;;;;;16.70;3.63;;;7.20;99.90;;;;;;5066812;28;20044;-71
2023/03/04 09:24:09;;;;;;;15.45;3.25;;;7.30;99.90;;;;;;5064921;28;20063;-71
2023/03/04 09:26:35;;;;;;;22.10;3.97;;;7.30;99.90;;;;;;5062814;28;20879;-71
2023/03/04 09:29:01;;;;;;;20.73;4.47;;;7.30;99.90;;;;;;5064944;28;20044;-71
2023/03/04 09:31:28;;;;;;;18.38;3.90;;;7.40;99.90;;;;;;5067517;28;20042;-71
2023/03/04 09:33:56;;;;;;;18.90;3.92;;;7.40;99.90;;;;;;5065622;28;20464;-71
2023/03/04 09:36:22;;;;;;;20.33;3.40;;;7.50;99.90;;;;;;5068924;28;20040;-71
2023/03/04 09:38:48;;;;;;;15.27;3.00;;;7.50;99.90;;;;;;5065272;28;20448;-71
2023/03/04 09:41:18;;;;;;;13.18;3.38;;;7.50;99.90;;;;;;5068667;28;20123;-71
2023/03/04 09:43:45;;;;;;;11.50;3.15;;;7.50;99.90;;;;;;5059420;28;20127;-71
2023/03/04 09:46:27;;;;;;;12.98;3.30;;;7.50;99.90;;;;;;5065832;28;20055;-71
2023/03/04 09:48:55;;;;;;;18.98;3.80;;;7.60;99.90;;;;;;5069609;28;20062;-71
2023/03/04 09:51:32;;;;;;;17.63;3.10;;;7.50;99.90;;;;;;5061465;28;20123;-71
2023/03/04 09:54:09;;;;;;;17.40;3.20;;;7.50;99.90;;;;;;5064380;28;20130;-71
2023/03/04 09:56:39;;;;;;;18.33;3.42;;;7.50;99.90;;;;;;5063768;28;20047;-71
2023/03/04 09:59:33;;;;;;;16.30;3.08;;;7.50;99.90;;;;;;5064322;28;20035;-71
2023/03/04 10:02:02;;;;;;;11.35;2.38;;;7.40;99.90;;;;;;5068069;28;20144;-71
2023/03/04 10:04:38;;;;;;;8.57;1.80;;;7.40;99.90;;;;;;5069657;28;20148;-71
2023/03/04 10:07:10;;;;;;;11.05;2.70;;;7.40;99.90;;;;;;5059415;28;20132;-71
2023/03/04 10:10:00;;;;;;;8.10;2.00;;;7.30;99.90;;;;;;5063694;28;20040;-71
2023/03/04 10:12:30;;;;;;;9.45;1.90;;;7.30;99.90;;;;;;5063669;28;20198;-71
2023/03/04 10:15:05;;;;;;;8.52;1.80;;;7.20;99.90;;;;;;5069094;28;20423;-71
2023/03/04 10:17:38;;;;;;;11.00;2.03;;;7.30;99.90;;;;;;5046299;28;20090;-71
2023/03/04 10:20:22;;;;;;;7.90;2.00;;;7.40;99.90;;;;;;5067186;28;20044;-71
2023/03/04 10:22:50;;;;;;;11.65;2.85;;;7.60;99.90;;;;;;5066884;28;20036;-71
2023/03/04 10:25:23;;;;;;;10.65;2.58;;;7.80;99.90;;;;;;5066516;28;20135;-71
2023/03/04 10:28:01;;;;;;;8.38;2.13;;;7.90;99.90;;;;;;5050243;28;20060;-71
2023/03/04 10:30:55;;;;;;;11.52;2.20;;;8.00;99.90;;;;;;5063941;28;20047;-71
2023/03/04 10:33:40;;;;;;;6.43;2.05;;;8.00;99.90;;;;;;5065279;28;20055;-71
2023/03/04 10:36:29;;;;;;;11.60;2.83;;;8.00;99.90;;;;;;5045659;28;20118;-71
2023/03/04 10:39:10;;;;;;;9.90;2.30;;;7.90;99.90;;;;;;5058801;28;20044;-71
2023/03/04 10:41:40;;;;;;;13.95;2.85;;;7.90;99.90;;;;;;5065278;28;20063;-71
2023/03/04 10:44:09;;;;;;;11.07;2.25;;;7.90;99.90;;;;;;5057271;28;20095;-71
2023/03/04 10:46:40;;;;;;;8.95;2.40;;;7.90;99.90;;;;;;5068693;28;20597;-71
2023/03/04 10:49:05;;;;;;;11.57;2.60;;;7.90;99.90;;;;;;5067007;28;20054;-71
2023/03/04 10:51:40;;;;;;;12.85;2.83;;;8.00;99.90;;;;;;5061247;28;20036;-71
2023/03/04 10:54:15;;;;;;;17.17;3.13;;;8.10;99.90;;;;;;5046477;28;20071;-71
2023/03/04 10:56:52;;;;;;;17.02;2.90;;;8.10;99.90;;;;;;5070279;28;20040;-71
2023/03/04 10:59:42;;;;;;;15.40;3.35;;;8.10;99.90;;;;;;5044077;28;20039;-71
2023/03/04 11:02:20;;;;;;;16.52;2.95;;;8.10;99.90;;;;;;5050040;28;20032;-71
2023/03/04 11:04:52;;;;;;;14.27;3.35;;;8.10;99.90;;;;;;5066392;28;20035;-71
2023/03/04 11:07:18;;;;;;;17.77;3.33;;;8.10;99.90;;;;;;5062636;28;20032;-71
2023/03/04 11:09:44;;;;;;;11.95;3.03;;;8.10;99.90;;;;;;5061412;28;20040;-71
2023/03/04 11:12:13;;;;;;;17.80;2.95;;;8.10;99.90;;;;;;5062575;28;20048;-71
2023/03/04 11:14:45;;;;;;;15.38;3.28;;;8.10;99.90;;;;;;5062664;28;20040;-71
2023/03/04 11:17:21;;;;;;;17.60;3.58;;;8.10;99.90;;;;;;5056372;28;20444;-71
2023/03/04 11:19:55;;;;;;;13.52;2.85;;;8.00;99.90;;;;;;5051634;28;20043;-71
2023/03/04 11:22:22;;;;;;;9.23;2.63;;;8.10;99.90;;;;;;5064004;28;20559;-71
2023/03/04 11:25:11;;;;;;;15.60;3.22;;;8.10;99.90;;;;;;5050777;28;20048;-71
2023/03/04 11:27:50;;;;;;;13.32;2.80;;;8.10;99.90;;;;;;5051301;28;20071;-71
2023/03/04 11:30:44;;;;;;;11.63;2.70;;;8.10;99.90;;;;;;5063593;28;20055;-71
2023/03/04 11:33:20;;;;;;;15.20;3.40;;;8.30;99.90;;;;;;5059207;28;20059;-71
2023/03/04 11:35:57;;;;;;;19.20;3.97;;;8.40;99.90;;;;;;5063605;28;20062;-71
2023/03/04 11:38:32;;;;;;;13.90;3.15;;;8.60;99.90;;;;;;5066443;28;20040;-71
2023/03/04 11:41:02;;;;;;;15.27;3.08;;;8.70;99.90;;;;;;5053404;28;20117;-71
2023/03/04 11:43:36;;;;;;;10.45;3.00;;;8.70;99.90;;;;;;5041628;28;20066;-71
2023/03/04 11:46:17;;;;;;;13.88;2.70;;;8.70;99.90;;;;;;5063644;28;20500;-71
2023/03/04 11:48:57;;;;;;;14.55;3.10;;;8.50;99.90;;;;;;5046386;28;20048;-71
2023/03/04 11:51:54;;;;;;;15.45;3.30;;;8.50;99.90;;;;;;5060648;28;20101;-71
2023/03/04 11:54:22;;;;;;;17.83;3.15;;;8.40;99.90;;;;;;5055317;28;20131;-71
2023/03/04 11:56:51;;;;;;;17.75;3.95;;;8.40;99.90;;;;;;5057472;28;20044;-71
2023/03/04 11:59:44;;;;;;;15.25;3.38;;;8.40;99.90;;;;;;5049880;28;20031;-71
2023/03/04 12:02:12;;;;;;;18.95;3.47;;;8.30;99.90;;;;;;5068773;28;20036;-71
2023/03/04 12:05:02;;;;;;;17.98;3.60;;;8.20;99.90;;;;;;5067959;28;21568;-71
2023/03/04 12:07:43;;;;;;;14.80;3.72;;;8.00;99.90;;;;;;5066200;28;20052;-71
2023/03/04 12:11:05;;;;;;;16.40;3.70;;;7.90;99.90;;;;;;5068309;28;20399;-71
2023/03/04 12:13:39;;;;;;;16.05;3.10;;;8.00;99.90;;;;;;4982306;28;20050;-71
2023/03/04 12:16:27;;;;;;;13.32;2.75;;;8.30;99.90;;;;;;4990865;28;20050;-71
2023/03/04 12:19:10;;;;;;;9.68;2.80;;;8.40;99.90;;;;;;5006958;28;20044;-71
2023/03/04 12:22:01;;;;;;;12.93;2.97;;;8.40;99.90;;;;;;4998748;28;20065;-72
2023/03/04 12:24:51;;;;;;;14.93;3.15;;;8.30;99.90;;;;;;5006029;28;20060;-72
2023/03/04 12:27:30;;;;;;;14.85;3.17;;;8.10;99.90;;;;;;4984272;28;20588;-71
2023/03/04 12:30:06;;;;;;;16.83;3.33;;;8.10;99.90;;;;;;5007502;28;20449;-71
2023/03/04 12:32:37;;;;;;;15.32;3.38;;;8.00;99.90;;;;;;5001965;28;20413;-71
2023/03/04 12:35:35;;;;;;;15.95;3.55;;;8.10;99.90;;;;;;4983957;28;20060;-72
2023/03/04 12:38:19;;;;;;;13.40;3.15;;;8.30;99.90;;;;;;5017678;28;20044;-71
2023/03/04 12:41:07;;;;;;;14.77;3.15;;;8.40;99.90;;;;;;5017428;28;20071;-72
2023/03/04 12:43:44;;;;;;;17.08;3.30;;;8.20;99.90;;;;;;5004730;28;20546;-71
2023/03/04 12:46:41;;;;;;;14.77;3.33;;;7.90;99.90;;;;;;5004604;28;20209;-71
2023/03/04 12:49:45;;;;;;;17.23;3.30;;;7.70;99.90;;;;;;5057199;28;20455;-71
2023/03/04 12:52:23;;;;;;;13.32;3.22;;;7.60;99.90;;;;;;5047403;28;20048;-71
2023/03/04 12:54:51;;;;;;;11.93;3.13;;;7.80;99.90;;;;;;5029664;28;20038;-71
2023/03/04 12:57:23;;;;;;;10.90;2.53;;;8.10;99.90;;;;;;5042350;28;20041;-71
2023/03/04 12:59:54;;;;;;;15.52;3.25;;;8.30;99.90;;;;;;5044530;28;20400;-72